sensor_id;sensor_type;location;lat;lon;timestamp;temperature;humidity
75155;HTU21D;63735;44.730;37.818;2022-11-14T00:01:06;11.23;73.86
75155;HTU21D;63735;44.730;37.818;2022-11-14T00:03:50;11.22;73.84
75155;HTU21D;63735;44.730;37.818;2022-11-14T00:06:35;11.19;73.87
75155;HTU21D;63735;44.730;37.818;2022-11-14T00:09:23;11.15;73.97
75155;HTU21D;63735;44.730;37.818;2022-11-14T00:12:09;11.11;73.95
75155;HTU21D;63735;44.730;37.818;2022-11-14T00:14:54;11.12;73.87
75155;HTU21D;63735;44.730;37.818;2022-11-14T00:17:39;11.10;73.84
75155;HTU21D;63735;44.730;37.818;2022-11-14T00:20:23;11.07;73.78
75155;HTU21D;63735;44.730;37.818;2022-11-14T00:23:08;11.05;73.72
75155;HTU21D;63735;44.730;37.818;2022-11-14T00:25:52;11.01;73.71
75155;HTU21D;63735;44.730;37.818;2022-11-14T00:28:36;10.95;73.72
75155;HTU21D;63735;44.730;37.818;2022-11-14T00:31:21;10.87;73.70
75155;HTU21D;63735;44.730;37.818;2022-11-14T00:34:06;10.78;73.76
75155;HTU21D;63735;44.730;37.818;2022-11-14T00:36:51;10.71;73.83
75155;HTU21D;63735;44.730;37.818;2022-11-14T00:39:35;10.66;73.86
75155;HTU21D;63735;44.730;37.818;2022-11-14T00:42:20;10.58;73.81
75155;HTU21D;63735;44.730;37.818;2022-11-14T00:45:05;10.54;73.75
75155;HTU21D;63735;44.730;37.818;2022-11-14T00:47:49;10.52;73.68
75155;HTU21D;63735;44.730;37.818;2022-11-14T00:50:34;10.53;73.54
75155;HTU21D;63735;44.730;37.818;2022-11-14T00:53:18;10.53;73.46
75155;HTU21D;63735;44.730;37.818;2022-11-14T00:56:03;10.52;73.40
75155;HTU21D;63735;44.730;37.818;2022-11-14T00:58:48;10.56;73.31
75155;HTU21D;63735;44.730;37.818;2022-11-14T01:01:32;10.58;73.18
75155;HTU21D;63735;44.730;37.818;2022-11-14T01:04:17;10.58;73.01
75155;HTU21D;63735;44.730;37.818;2022-11-14T01:07:01;10.59;72.90
75155;HTU21D;63735;44.730;37.818;2022-11-14T01:09:45;10.57;72.77
75155;HTU21D;63735;44.730;37.818;2022-11-14T01:12:30;10.58;72.64
75155;HTU21D;63735;44.730;37.818;2022-11-14T01:15:14;10.64;72.46
75155;HTU21D;63735;44.730;37.818;2022-11-14T01:17:59;10.67;72.32
75155;HTU21D;63735;44.730;37.818;2022-11-14T01:20:44;10.64;72.27
75155;HTU21D;63735;44.730;37.818;2022-11-14T01:23:29;10.62;72.21
75155;HTU21D;63735;44.730;37.818;2022-11-14T01:26:14;10.57;72.19
75155;HTU21D;63735;44.730;37.818;2022-11-14T01:28:58;10.54;72.12
75155;HTU21D;63735;44.730;37.818;2022-11-14T01:31:43;10.52;72.08
75155;HTU21D;63735;44.730;37.818;2022-11-14T01:34:27;10.46;72.08
75155;HTU21D;63735;44.730;37.818;2022-11-14T01:37:12;10.40;72.11
75155;HTU21D;63735;44.730;37.818;2022-11-14T01:39:57;10.34;72.12
75155;HTU21D;63735;44.730;37.818;2022-11-14T01:42:41;10.29;72.14
75155;HTU21D;63735;44.730;37.818;2022-11-14T01:49:10;10.16;72.21
75155;HTU21D;63735;44.730;37.818;2022-11-14T01:52:16;10.11;72.17
75155;HTU21D;63735;44.730;37.818;2022-11-14T01:55:06;10.10;72.12
75155;HTU21D;63735;44.730;37.818;2022-11-14T01:57:51;10.06;72.03
75155;HTU21D;63735;44.730;37.818;2022-11-14T02:00:35;10.05;71.97
75155;HTU21D;63735;44.730;37.818;2022-11-14T02:03:20;10.04;71.91
75155;HTU21D;63735;44.730;37.818;2022-11-14T02:06:06;10.01;71.87
75155;HTU21D;63735;44.730;37.818;2022-11-14T02:08:52;9.99;71.74
75155;HTU21D;63735;44.730;37.818;2022-11-14T02:11:40;9.96;71.71
75155;HTU21D;63735;44.730;37.818;2022-11-14T02:14:26;9.97;71.63
75155;HTU21D;63735;44.730;37.818;2022-11-14T02:17:12;9.95;71.40
75155;HTU21D;63735;44.730;37.818;2022-11-14T02:20:24;9.95;71.26
75155;HTU21D;63735;44.730;37.818;2022-11-14T02:23:11;9.95;71.20
75155;HTU21D;63735;44.730;37.818;2022-11-14T02:25:56;9.89;71.20
75155;HTU21D;63735;44.730;37.818;2022-11-14T02:28:41;9.86;71.23
75155;HTU21D;63735;44.730;37.818;2022-11-14T02:31:25;9.82;71.20
75155;HTU21D;63735;44.730;37.818;2022-11-14T02:34:10;9.79;71.19
75155;HTU21D;63735;44.730;37.818;2022-11-14T02:36:54;9.71;71.22
75155;HTU21D;63735;44.730;37.818;2022-11-14T02:39:39;9.70;71.26
75155;HTU21D;63735;44.730;37.818;2022-11-14T02:42:23;9.69;71.19
75155;HTU21D;63735;44.730;37.818;2022-11-14T02:45:09;9.67;71.21
75155;HTU21D;63735;44.730;37.818;2022-11-14T02:47:55;9.65;71.20
75155;HTU21D;63735;44.730;37.818;2022-11-14T02:50:39;9.62;71.27
75155;HTU21D;63735;44.730;37.818;2022-11-14T02:53:23;9.60;71.26
75155;HTU21D;63735;44.730;37.818;2022-11-14T02:56:08;9.55;71.32
75155;HTU21D;63735;44.730;37.818;2022-11-14T02:58:53;9.50;71.43
75155;HTU21D;63735;44.730;37.818;2022-11-14T03:01:37;9.49;71.45
75155;HTU21D;63735;44.730;37.818;2022-11-14T03:04:21;9.47;71.42
75155;HTU21D;63735;44.730;37.818;2022-11-14T03:07:06;9.45;71.45
75155;HTU21D;63735;44.730;37.818;2022-11-14T03:09:50;9.44;71.51
75155;HTU21D;63735;44.730;37.818;2022-11-14T03:12:35;9.38;71.56
75155;HTU21D;63735;44.730;37.818;2022-11-14T03:15:20;9.32;71.64
75155;HTU21D;63735;44.730;37.818;2022-11-14T03:18:04;9.27;71.73
75155;HTU21D;63735;44.730;37.818;2022-11-14T03:20:48;9.24;71.79
75155;HTU21D;63735;44.730;37.818;2022-11-14T03:23:33;9.25;71.77
75155;HTU21D;63735;44.730;37.818;2022-11-14T03:26:17;9.25;71.70
75155;HTU21D;63735;44.730;37.818;2022-11-14T03:29:02;9.25;71.68
75155;HTU21D;63735;44.730;37.818;2022-11-14T03:31:46;9.25;71.68
75155;HTU21D;63735;44.730;37.818;2022-11-14T03:34:31;9.23;71.65
75155;HTU21D;63735;44.730;37.818;2022-11-14T03:37:15;9.21;71.72
75155;HTU21D;63735;44.730;37.818;2022-11-14T03:40:00;9.19;71.70
75155;HTU21D;63735;44.730;37.818;2022-11-14T03:42:44;9.17;71.71
75155;HTU21D;63735;44.730;37.818;2022-11-14T03:45:29;9.09;71.74
75155;HTU21D;63735;44.730;37.818;2022-11-14T03:48:13;8.96;71.82
75155;HTU21D;63735;44.730;37.818;2022-11-14T03:50:58;8.79;72.04
75155;HTU21D;63735;44.730;37.818;2022-11-14T03:53:42;8.65;72.29
75155;HTU21D;63735;44.730;37.818;2022-11-14T03:56:27;8.58;72.46
75155;HTU21D;63735;44.730;37.818;2022-11-14T03:59:11;8.53;72.51
75155;HTU21D;63735;44.730;37.818;2022-11-14T04:01:56;8.59;72.45
75155;HTU21D;63735;44.730;37.818;2022-11-14T04:04:40;8.59;72.42
75155;HTU21D;63735;44.730;37.818;2022-11-14T04:07:25;8.58;72.49
75155;HTU21D;63735;44.730;37.818;2022-11-14T04:10:09;8.62;72.54
75155;HTU21D;63735;44.730;37.818;2022-11-14T04:12:54;8.71;72.48
75155;HTU21D;63735;44.730;37.818;2022-11-14T04:15:38;8.81;72.41
75155;HTU21D;63735;44.730;37.818;2022-11-14T04:18:24;8.87;72.38
75155;HTU21D;63735;44.730;37.818;2022-11-14T04:21:09;8.95;72.38
75155;HTU21D;63735;44.730;37.818;2022-11-14T04:23:53;8.98;72.37
75155;HTU21D;63735;44.730;37.818;2022-11-14T04:26:37;9.02;72.38
75155;HTU21D;63735;44.730;37.818;2022-11-14T04:29:22;9.07;72.35
75155;HTU21D;63735;44.730;37.818;2022-11-14T04:32:07;9.15;72.34
75155;HTU21D;63735;44.730;37.818;2022-11-14T04:34:51;9.19;72.40
75155;HTU21D;63735;44.730;37.818;2022-11-14T04:37:35;9.26;72.38
75155;HTU21D;63735;44.730;37.818;2022-11-14T04:40:22;9.32;72.45
75155;HTU21D;63735;44.730;37.818;2022-11-14T04:43:06;9.38;72.45
75155;HTU21D;63735;44.730;37.818;2022-11-14T04:45:51;9.46;72.45
75155;HTU21D;63735;44.730;37.818;2022-11-14T04:48:35;9.53;72.41
75155;HTU21D;63735;44.730;37.818;2022-11-14T04:51:19;9.62;72.34
75155;HTU21D;63735;44.730;37.818;2022-11-14T04:54:04;9.68;72.29
75155;HTU21D;63735;44.730;37.818;2022-11-14T04:56:49;9.77;72.25
75155;HTU21D;63735;44.730;37.818;2022-11-14T04:59:33;9.84;72.16
75155;HTU21D;63735;44.730;37.818;2022-11-14T05:02:18;9.90;72.13
75155;HTU21D;63735;44.730;37.818;2022-11-14T05:05:02;9.96;72.12
75155;HTU21D;63735;44.730;37.818;2022-11-14T05:07:46;10.04;72.10
75155;HTU21D;63735;44.730;37.818;2022-11-14T05:10:31;10.06;72.08
75155;HTU21D;63735;44.730;37.818;2022-11-14T05:13:15;10.07;72.22
75155;HTU21D;63735;44.730;37.818;2022-11-14T05:16:00;10.11;72.25
75155;HTU21D;63735;44.730;37.818;2022-11-14T05:18:44;10.14;72.27
75155;HTU21D;63735;44.730;37.818;2022-11-14T05:21:29;10.20;72.26
75155;HTU21D;63735;44.730;37.818;2022-11-14T05:24:13;10.20;72.33
75155;HTU21D;63735;44.730;37.818;2022-11-14T05:26:58;10.26;72.37
75155;HTU21D;63735;44.730;37.818;2022-11-14T05:29:42;10.29;72.32
75155;HTU21D;63735;44.730;37.818;2022-11-14T05:32:27;10.35;72.37
75155;HTU21D;63735;44.730;37.818;2022-11-14T05:35:11;10.41;72.31
75155;HTU21D;63735;44.730;37.818;2022-11-14T05:37:56;10.48;72.29
75155;HTU21D;63735;44.730;37.818;2022-11-14T05:40:43;10.57;72.22
75155;HTU21D;63735;44.730;37.818;2022-11-14T05:43:28;10.64;72.13
75155;HTU21D;63735;44.730;37.818;2022-11-14T05:46:14;10.70;71.95
75155;HTU21D;63735;44.730;37.818;2022-11-14T05:48:59;10.77;71.85
75155;HTU21D;63735;44.730;37.818;2022-11-14T05:51:43;10.83;71.71
75155;HTU21D;63735;44.730;37.818;2022-11-14T05:54:28;10.89;71.58
75155;HTU21D;63735;44.730;37.818;2022-11-14T05:57:12;10.93;71.42
75155;HTU21D;63735;44.730;37.818;2022-11-14T05:59:57;10.94;71.38
75155;HTU21D;63735;44.730;37.818;2022-11-14T06:02:42;11.01;71.33
75155;HTU21D;63735;44.730;37.818;2022-11-14T06:05:29;11.10;71.19
75155;HTU21D;63735;44.730;37.818;2022-11-14T06:08:13;11.14;71.15
75155;HTU21D;63735;44.730;37.818;2022-11-14T06:11:03;11.19;71.08
75155;HTU21D;63735;44.730;37.818;2022-11-14T06:13:47;11.26;71.02
75155;HTU21D;63735;44.730;37.818;2022-11-14T06:16:32;11.32;70.93
75155;HTU21D;63735;44.730;37.818;2022-11-14T06:19:16;11.37;70.80
75155;HTU21D;63735;44.730;37.818;2022-11-14T06:22:01;11.41;70.61
75155;HTU21D;63735;44.730;37.818;2022-11-14T06:24:45;11.46;70.39
75155;HTU21D;63735;44.730;37.818;2022-11-14T06:27:30;11.55;70.15
75155;HTU21D;63735;44.730;37.818;2022-11-14T06:30:15;11.61;70.02
75155;HTU21D;63735;44.730;37.818;2022-11-14T06:32:59;11.72;69.97
75155;HTU21D;63735;44.730;37.818;2022-11-14T06:35:44;11.84;69.76
75155;HTU21D;63735;44.730;37.818;2022-11-14T06:38:33;11.86;69.44
75155;HTU21D;63735;44.730;37.818;2022-11-14T06:41:20;11.84;69.38
75155;HTU21D;63735;44.730;37.818;2022-11-14T06:44:07;11.90;69.23
75155;HTU21D;63735;44.730;37.818;2022-11-14T06:46:51;11.96;69.06
75155;HTU21D;63735;44.730;37.818;2022-11-14T06:49:36;12.02;68.95
75155;HTU21D;63735;44.730;37.818;2022-11-14T06:52:20;12.05;68.66
75155;HTU21D;63735;44.730;37.818;2022-11-14T06:55:05;12.03;68.65
75155;HTU21D;63735;44.730;37.818;2022-11-14T06:57:53;12.05;68.57
75155;HTU21D;63735;44.730;37.818;2022-11-14T07:00:38;12.12;68.51
75155;HTU21D;63735;44.730;37.818;2022-11-14T07:03:22;12.15;68.40
75155;HTU21D;63735;44.730;37.818;2022-11-14T07:06:08;12.18;68.33
75155;HTU21D;63735;44.730;37.818;2022-11-14T07:08:53;12.22;68.19
75155;HTU21D;63735;44.730;37.818;2022-11-14T07:11:38;12.20;68.18
75155;HTU21D;63735;44.730;37.818;2022-11-14T07:14:22;12.20;68.10
75155;HTU21D;63735;44.730;37.818;2022-11-14T07:17:07;12.20;67.94
75155;HTU21D;63735;44.730;37.818;2022-11-14T07:19:51;12.21;67.75
75155;HTU21D;63735;44.730;37.818;2022-11-14T07:22:36;12.22;67.60
75155;HTU21D;63735;44.730;37.818;2022-11-14T07:25:20;12.23;67.47
75155;HTU21D;63735;44.730;37.818;2022-11-14T07:28:06;12.29;67.20
75155;HTU21D;63735;44.730;37.818;2022-11-14T07:30:51;12.35;66.95
75155;HTU21D;63735;44.730;37.818;2022-11-14T07:33:35;12.46;66.75
75155;HTU21D;63735;44.730;37.818;2022-11-14T07:36:20;12.66;66.59
75155;HTU21D;63735;44.730;37.818;2022-11-14T07:39:04;12.87;66.23
75155;HTU21D;63735;44.730;37.818;2022-11-14T07:41:49;13.02;65.96
75155;HTU21D;63735;44.730;37.818;2022-11-14T07:44:33;13.18;65.69
75155;HTU21D;63735;44.730;37.818;2022-11-14T07:47:18;13.36;65.53
75155;HTU21D;63735;44.730;37.818;2022-11-14T07:50:02;13.74;64.92
75155;HTU21D;63735;44.730;37.818;2022-11-14T07:52:54;14.10;63.99
75155;HTU21D;63735;44.730;37.818;2022-11-14T07:55:38;14.35;63.14
75155;HTU21D;63735;44.730;37.818;2022-11-14T07:58:23;14.35;63.01
75155;HTU21D;63735;44.730;37.818;2022-11-14T08:01:09;14.45;62.63
75155;HTU21D;63735;44.730;37.818;2022-11-14T08:03:54;14.42;62.53
75155;HTU21D;63735;44.730;37.818;2022-11-14T08:06:38;14.35;62.68
75155;HTU21D;63735;44.730;37.818;2022-11-14T08:09:23;14.34;62.84
75155;HTU21D;63735;44.730;37.818;2022-11-14T08:12:07;14.33;62.76
75155;HTU21D;63735;44.730;37.818;2022-11-14T08:14:52;14.24;62.45
75155;HTU21D;63735;44.730;37.818;2022-11-14T08:17:36;14.14;62.50
75155;HTU21D;63735;44.730;37.818;2022-11-14T08:20:21;14.11;62.44
75155;HTU21D;63735;44.730;37.818;2022-11-14T08:23:06;14.12;62.21
75155;HTU21D;63735;44.730;37.818;2022-11-14T08:25:50;14.24;62.05
75155;HTU21D;63735;44.730;37.818;2022-11-14T08:28:35;14.33;61.75
75155;HTU21D;63735;44.730;37.818;2022-11-14T08:31:20;14.34;61.53
75155;HTU21D;63735;44.730;37.818;2022-11-14T08:34:04;14.36;61.54
75155;HTU21D;63735;44.730;37.818;2022-11-14T08:36:49;14.35;61.34
75155;HTU21D;63735;44.730;37.818;2022-11-14T08:39:34;14.37;61.38
75155;HTU21D;63735;44.730;37.818;2022-11-14T08:42:18;14.45;61.24
75155;HTU21D;63735;44.730;37.818;2022-11-14T08:45:03;14.49;61.09
75155;HTU21D;63735;44.730;37.818;2022-11-14T08:47:52;14.48;60.86
75155;HTU21D;63735;44.730;37.818;2022-11-14T08:50:37;14.38;60.89
75155;HTU21D;63735;44.730;37.818;2022-11-14T08:53:21;14.22;61.09
75155;HTU21D;63735;44.730;37.818;2022-11-14T08:56:08;14.21;61.07
75155;HTU21D;63735;44.730;37.818;2022-11-14T08:58:53;14.27;60.96
75155;HTU21D;63735;44.730;37.818;2022-11-14T09:01:37;14.38;60.83
75155;HTU21D;63735;44.730;37.818;2022-11-14T09:04:22;14.53;60.67
75155;HTU21D;63735;44.730;37.818;2022-11-14T09:07:07;14.62;60.42
75155;HTU21D;63735;44.730;37.818;2022-11-14T09:09:51;14.64;60.24
75155;HTU21D;63735;44.730;37.818;2022-11-14T09:12:35;14.65;60.06
75155;HTU21D;63735;44.730;37.818;2022-11-14T09:15:20;14.71;59.85
75155;HTU21D;63735;44.730;37.818;2022-11-14T09:18:05;14.81;59.55
75155;HTU21D;63735;44.730;37.818;2022-11-14T09:20:50;14.85;59.28
75155;HTU21D;63735;44.730;37.818;2022-11-14T09:23:35;14.96;59.00
75155;HTU21D;63735;44.730;37.818;2022-11-14T09:26:19;15.21;58.77
75155;HTU21D;63735;44.730;37.818;2022-11-14T09:29:04;15.53;57.88
75155;HTU21D;63735;44.730;37.818;2022-11-14T09:31:50;15.66;57.60
75155;HTU21D;63735;44.730;37.818;2022-11-14T09:34:35;15.93;57.10
75155;HTU21D;63735;44.730;37.818;2022-11-14T09:37:20;15.96;56.64
75155;HTU21D;63735;44.730;37.818;2022-11-14T09:40:07;15.92;56.68
75155;HTU21D;63735;44.730;37.818;2022-11-14T09:45:42;15.86;56.25
75155;HTU21D;63735;44.730;37.818;2022-11-14T09:48:28;15.98;56.11
75155;HTU21D;63735;44.730;37.818;2022-11-14T09:51:20;16.39;55.12
75155;HTU21D;63735;44.730;37.818;2022-11-14T09:54:21;16.91;54.27
75155;HTU21D;63735;44.730;37.818;2022-11-14T09:57:18;17.24;53.52
75155;HTU21D;63735;44.730;37.818;2022-11-14T10:00:25;17.06;53.04
75155;HTU21D;63735;44.730;37.818;2022-11-14T10:03:20;17.28;53.03
75155;HTU21D;63735;44.730;37.818;2022-11-14T10:06:10;17.80;52.48
75155;HTU21D;63735;44.730;37.818;2022-11-14T10:12:17;17.97;50.87
75155;HTU21D;63735;44.730;37.818;2022-11-14T10:15:36;18.14;50.40
75155;HTU21D;63735;44.730;37.818;2022-11-14T10:18:40;18.96;49.15
75155;HTU21D;63735;44.730;37.818;2022-11-14T10:21:50;19.50;47.63
75155;HTU21D;63735;44.730;37.818;2022-11-14T10:30:39;19.59;46.11
75155;HTU21D;63735;44.730;37.818;2022-11-14T10:39:43;18.79;46.73
75155;HTU21D;63735;44.730;37.818;2022-11-14T10:42:40;18.69;47.03
75155;HTU21D;63735;44.730;37.818;2022-11-14T10:45:35;18.89;46.43
75155;HTU21D;63735;44.730;37.818;2022-11-14T10:48:36;18.82;46.57
75155;HTU21D;63735;44.730;37.818;2022-11-14T10:51:33;18.68;46.26
75155;HTU21D;63735;44.730;37.818;2022-11-14T10:54:47;18.23;46.75
75155;HTU21D;63735;44.730;37.818;2022-11-14T10:57:33;18.02;47.47
75155;HTU21D;63735;44.730;37.818;2022-11-14T11:00:19;18.53;46.93
75155;HTU21D;63735;44.730;37.818;2022-11-14T11:03:06;19.13;45.95
75155;HTU21D;63735;44.730;37.818;2022-11-14T11:05:51;19.70;44.67
75155;HTU21D;63735;44.730;37.818;2022-11-14T11:08:43;19.89;44.14
75155;HTU21D;63735;44.730;37.818;2022-11-14T11:11:57;19.96;44.32
75155;HTU21D;63735;44.730;37.818;2022-11-14T11:14:43;20.17;43.75
75155;HTU21D;63735;44.730;37.818;2022-11-14T11:17:28;20.35;43.60
75155;HTU21D;63735;44.730;37.818;2022-11-14T11:20:34;20.69;43.12
75155;HTU21D;63735;44.730;37.818;2022-11-14T11:23:23;21.00;42.35
75155;HTU21D;63735;44.730;37.818;2022-11-14T11:26:18;20.93;41.32
75155;HTU21D;63735;44.730;37.818;2022-11-14T11:31:55;20.73;41.81
75155;HTU21D;63735;44.730;37.818;2022-11-14T11:34:41;20.87;41.39
75155;HTU21D;63735;44.730;37.818;2022-11-14T11:37:28;20.85;41.23
75155;HTU21D;63735;44.730;37.818;2022-11-14T11:40:20;20.87;41.30
75155;HTU21D;63735;44.730;37.818;2022-11-14T11:46:32;21.34;40.36
75155;HTU21D;63735;44.730;37.818;2022-11-14T11:49:36;21.53;40.35
75155;HTU21D;63735;44.730;37.818;2022-11-14T11:52:29;21.58;40.26
75155;HTU21D;63735;44.730;37.818;2022-11-14T11:55:19;21.67;39.96
75155;HTU21D;63735;44.730;37.818;2022-11-14T11:58:11;21.89;39.49
75155;HTU21D;63735;44.730;37.818;2022-11-14T12:00:56;21.97;39.24
75155;HTU21D;63735;44.730;37.818;2022-11-14T12:03:51;22.14;38.80
75155;HTU21D;63735;44.730;37.818;2022-11-14T12:07:11;22.42;38.30
75155;HTU21D;63735;44.730;37.818;2022-11-14T12:09:57;22.37;38.45
75155;HTU21D;63735;44.730;37.818;2022-11-14T12:15:40;22.17;38.75
75155;HTU21D;63735;44.730;37.818;2022-11-14T12:24:24;22.54;38.69
75155;HTU21D;63735;44.730;37.818;2022-11-14T12:27:19;22.47;38.06
75155;HTU21D;63735;44.730;37.818;2022-11-14T12:30:20;22.11;37.94
75155;HTU21D;63735;44.730;37.818;2022-11-14T12:33:13;22.24;38.11
75155;HTU21D;63735;44.730;37.818;2022-11-14T12:36:01;22.35;37.98
75155;HTU21D;63735;44.730;37.818;2022-11-14T12:38:56;22.61;37.51
75155;HTU21D;63735;44.730;37.818;2022-11-14T12:41:41;22.80;37.42
75155;HTU21D;63735;44.730;37.818;2022-11-14T12:47:27;23.10;36.27
75155;HTU21D;63735;44.730;37.818;2022-11-14T12:50:30;22.96;36.13
75155;HTU21D;63735;44.730;37.818;2022-11-14T12:59:27;22.49;36.30
75155;HTU21D;63735;44.730;37.818;2022-11-14T13:06:03;21.77;36.76
75155;HTU21D;63735;44.730;37.818;2022-11-14T13:09:22;21.46;36.70
75155;HTU21D;63735;44.730;37.818;2022-11-14T13:12:34;21.15;36.93
75155;HTU21D;63735;44.730;37.818;2022-11-14T13:15:49;20.79;37.21
75155;HTU21D;63735;44.730;37.818;2022-11-14T13:19:02;20.40;37.75
75155;HTU21D;63735;44.730;37.818;2022-11-14T13:27:46;19.20;39.45
75155;HTU21D;63735;44.730;37.818;2022-11-14T13:31:15;18.77;39.99
75155;HTU21D;63735;44.730;37.818;2022-11-14T13:40:33;17.17;41.92
75155;HTU21D;63735;44.730;37.818;2022-11-14T13:47:09;15.86;44.15
75155;HTU21D;63735;44.730;37.818;2022-11-14T13:50:16;15.09;45.51
75155;HTU21D;63735;44.730;37.818;2022-11-14T13:53:09;14.56;46.24
75155;HTU21D;63735;44.730;37.818;2022-11-14T14:17:36;12.32;52.75
75155;HTU21D;63735;44.730;37.818;2022-11-14T14:20:46;12.16;53.85
75155;HTU21D;63735;44.730;37.818;2022-11-14T14:26:50;11.93;54.30
75155;HTU21D;63735;44.730;37.818;2022-11-14T14:30:08;11.85;54.60
75155;HTU21D;63735;44.730;37.818;2022-11-14T14:35:51;11.67;54.93
75155;HTU21D;63735;44.730;37.818;2022-11-14T14:38:36;11.64;55.20
75155;HTU21D;63735;44.730;37.818;2022-11-14T14:41:21;11.60;55.35
75155;HTU21D;63735;44.730;37.818;2022-11-14T14:47:33;11.45;56.36
75155;HTU21D;63735;44.730;37.818;2022-11-14T14:50:27;11.39;56.36
75155;HTU21D;63735;44.730;37.818;2022-11-14T14:56:12;11.28;56.93
75155;HTU21D;63735;44.730;37.818;2022-11-14T14:59:15;11.18;57.55
75155;HTU21D;63735;44.730;37.818;2022-11-14T15:02:00;11.15;57.42
75155;HTU21D;63735;44.730;37.818;2022-11-14T15:04:45;11.08;57.95
75155;HTU21D;63735;44.730;37.818;2022-11-14T15:07:29;10.98;58.28
75155;HTU21D;63735;44.730;37.818;2022-11-14T15:10:23;10.92;58.81
75155;HTU21D;63735;44.730;37.818;2022-11-14T15:13:10;10.86;58.97
75155;HTU21D;63735;44.730;37.818;2022-11-14T15:15:57;10.81;59.70
75155;HTU21D;63735;44.730;37.818;2022-11-14T15:18:43;10.74;60.43
75155;HTU21D;63735;44.730;37.818;2022-11-14T15:21:28;10.69;60.43
75155;HTU21D;63735;44.730;37.818;2022-11-14T15:24:21;10.60;60.98
75155;HTU21D;63735;44.730;37.818;2022-11-14T15:27:19;10.57;61.49
75155;HTU21D;63735;44.730;37.818;2022-11-14T15:30:06;10.52;61.64
75155;HTU21D;63735;44.730;37.818;2022-11-14T15:33:04;10.43;61.99
75155;HTU21D;63735;44.730;37.818;2022-11-14T15:36:04;10.40;62.57
75155;HTU21D;63735;44.730;37.818;2022-11-14T15:39:01;10.35;62.49
75155;HTU21D;63735;44.730;37.818;2022-11-14T15:41:46;10.30;63.27
75155;HTU21D;63735;44.730;37.818;2022-11-14T15:44:32;10.22;63.79
75155;HTU21D;63735;44.730;37.818;2022-11-14T15:50:50;10.10;63.85
75155;HTU21D;63735;44.730;37.818;2022-11-14T15:53:36;10.05;65.08
75155;HTU21D;63735;44.730;37.818;2022-11-14T15:56:22;9.99;64.66
75155;HTU21D;63735;44.730;37.818;2022-11-14T15:59:06;9.96;64.83
75155;HTU21D;63735;44.730;37.818;2022-11-14T16:01:55;9.92;65.56
75155;HTU21D;63735;44.730;37.818;2022-11-14T16:04:40;9.88;65.46
75155;HTU21D;63735;44.730;37.818;2022-11-14T16:07:24;9.83;65.55
75155;HTU21D;63735;44.730;37.818;2022-11-14T16:13:01;9.75;65.69
75155;HTU21D;63735;44.730;37.818;2022-11-14T16:15:45;9.69;65.95
75155;HTU21D;63735;44.730;37.818;2022-11-14T16:18:30;9.67;65.83
75155;HTU21D;63735;44.730;37.818;2022-11-14T16:21:16;9.63;66.21
75155;HTU21D;63735;44.730;37.818;2022-11-14T16:24:01;9.59;66.39
75155;HTU21D;63735;44.730;37.818;2022-11-14T16:26:46;9.55;66.66
75155;HTU21D;63735;44.730;37.818;2022-11-14T16:29:30;9.49;67.12
75155;HTU21D;63735;44.730;37.818;2022-11-14T16:32:14;9.45;67.16
75155;HTU21D;63735;44.730;37.818;2022-11-14T16:34:59;9.41;67.53
75155;HTU21D;63735;44.730;37.818;2022-11-14T16:37:44;9.39;67.59
75155;HTU21D;63735;44.730;37.818;2022-11-14T16:40:29;9.39;67.41
75155;HTU21D;63735;44.730;37.818;2022-11-14T16:43:13;9.36;67.46
75155;HTU21D;63735;44.730;37.818;2022-11-14T16:46:02;9.34;67.35
75155;HTU21D;63735;44.730;37.818;2022-11-14T16:48:47;9.34;67.44
75155;HTU21D;63735;44.730;37.818;2022-11-14T16:51:31;9.27;67.22
75155;HTU21D;63735;44.730;37.818;2022-11-14T16:54:18;9.23;67.52
75155;HTU21D;63735;44.730;37.818;2022-11-14T16:57:03;9.20;67.85
75155;HTU21D;63735;44.730;37.818;2022-11-14T16:59:48;9.14;68.00
75155;HTU21D;63735;44.730;37.818;2022-11-14T17:02:34;9.10;68.22
75155;HTU21D;63735;44.730;37.818;2022-11-14T17:05:18;9.05;68.46
75155;HTU21D;63735;44.730;37.818;2022-11-14T17:08:03;8.98;68.59
75155;HTU21D;63735;44.730;37.818;2022-11-14T17:10:47;8.93;68.68
75155;HTU21D;63735;44.730;37.818;2022-11-14T17:13:32;8.85;69.00
75155;HTU21D;63735;44.730;37.818;2022-11-14T17:16:16;8.81;69.22
75155;HTU21D;63735;44.730;37.818;2022-11-14T17:19:01;8.74;69.68
75155;HTU21D;63735;44.730;37.818;2022-11-14T17:21:45;8.65;70.06
75155;HTU21D;63735;44.730;37.818;2022-11-14T17:24:30;8.62;70.26
75155;HTU21D;63735;44.730;37.818;2022-11-14T17:27:14;8.61;70.44
75155;HTU21D;63735;44.730;37.818;2022-11-14T17:29:59;8.61;70.42
75155;HTU21D;63735;44.730;37.818;2022-11-14T17:32:43;8.62;70.57
75155;HTU21D;63735;44.730;37.818;2022-11-14T17:35:28;8.58;70.68
75155;HTU21D;63735;44.730;37.818;2022-11-14T17:38:12;8.57;70.76
75155;HTU21D;63735;44.730;37.818;2022-11-14T17:40:57;8.56;70.83
75155;HTU21D;63735;44.730;37.818;2022-11-14T17:43:42;8.55;70.85
75155;HTU21D;63735;44.730;37.818;2022-11-14T17:46:26;8.53;70.89
75155;HTU21D;63735;44.730;37.818;2022-11-14T17:49:11;8.51;70.91
75155;HTU21D;63735;44.730;37.818;2022-11-14T17:51:55;8.49;70.87
75155;HTU21D;63735;44.730;37.818;2022-11-14T17:54:40;8.50;70.81
75155;HTU21D;63735;44.730;37.818;2022-11-14T17:57:24;8.47;70.93
75155;HTU21D;63735;44.730;37.818;2022-11-14T18:00:09;8.44;70.97
75155;HTU21D;63735;44.730;37.818;2022-11-14T18:02:53;8.43;70.90
75155;HTU21D;63735;44.730;37.818;2022-11-14T18:05:38;8.43;70.97
75155;HTU21D;63735;44.730;37.818;2022-11-14T18:08:22;8.39;70.89
75155;HTU21D;63735;44.730;37.818;2022-11-14T18:11:11;8.34;71.06
75155;HTU21D;63735;44.730;37.818;2022-11-14T18:13:55;8.32;71.11
75155;HTU21D;63735;44.730;37.818;2022-11-14T18:16:40;8.30;71.10
75155;HTU21D;63735;44.730;37.818;2022-11-14T18:19:24;8.31;70.93
75155;HTU21D;63735;44.730;37.818;2022-11-14T18:22:08;8.33;70.88
75155;HTU21D;63735;44.730;37.818;2022-11-14T18:24:53;8.34;70.87
75155;HTU21D;63735;44.730;37.818;2022-11-14T18:27:37;8.39;70.76
75155;HTU21D;63735;44.730;37.818;2022-11-14T18:30:22;8.39;70.61
75155;HTU21D;63735;44.730;37.818;2022-11-14T18:33:06;8.38;70.53
75155;HTU21D;63735;44.730;37.818;2022-11-14T18:35:57;8.38;70.43
75155;HTU21D;63735;44.730;37.818;2022-11-14T18:38:42;8.39;70.13
75155;HTU21D;63735;44.730;37.818;2022-11-14T18:41:27;8.45;69.99
75155;HTU21D;63735;44.730;37.818;2022-11-14T18:44:12;8.51;69.68
75155;HTU21D;63735;44.730;37.818;2022-11-14T18:46:56;8.50;69.58
75155;HTU21D;63735;44.730;37.818;2022-11-14T18:49:41;8.50;69.56
75155;HTU21D;63735;44.730;37.818;2022-11-14T18:52:25;8.49;69.49
75155;HTU21D;63735;44.730;37.818;2022-11-14T18:55:10;8.47;69.53
75155;HTU21D;63735;44.730;37.818;2022-11-14T18:57:54;8.49;69.47